sensor_id;sensor_type;location;lat;lon;timestamp;noise_LAeq;noise_LA_min;noise_LA_max;noise_LA01;noise_LA95
82857;Laerm;72620;47.774;9.620;2024-01-25T00:01:02;52.70;49.41;62.91;;
82857;Laerm;72620;47.774;9.620;2024-01-25T00:03:29;58.00;49.50;68.25;;
82857;Laerm;72620;47.774;9.620;2024-01-25T00:05:56;55.85;49.25;68.47;;
82857;Laerm;72620;47.774;9.620;2024-01-25T00:08:23;51.28;49.38;60.72;;
82857;Laerm;72620;47.774;9.620;2024-01-25T00:10:50;56.09;49.68;67.26;;
82857;Laerm;72620;47.774;9.620;2024-01-25T00:13:17;60.60;50.01;73.36;;
82857;Laerm;72620;47.774;9.620;2024-01-25T00:15:45;58.25;50.02;69.76;;
82857;Laerm;72620;47.774;9.620;2024-01-25T00:18:12;53.89;49.94;63.29;;
82857;Laerm;72620;47.774;9.620;2024-01-25T00:20:39;54.99;49.81;64.90;;
82857;Laerm;72620;47.774;9.620;2024-01-25T00:23:06;52.39;49.85;59.76;;
82857;Laerm;72620;47.774;9.620;2024-01-25T00:25:33;60.84;49.84;75.56;;
82857;Laerm;72620;47.774;9.620;2024-01-25T00:28:00;53.84;49.97;66.26;;
82857;Laerm;72620;47.774;9.620;2024-01-25T00:30:27;53.01;49.74;64.06;;
82857;Laerm;72620;47.774;9.620;2024-01-25T00:32:57;60.71;49.95;74.52;;
82857;Laerm;72620;47.774;9.620;2024-01-25T00:35:25;56.70;49.53;68.25;;
82857;Laerm;72620;47.774;9.620;2024-01-25T00:37:53;53.87;49.50;66.89;;
82857;Laerm;72620;47.774;9.620;2024-01-25T00:40:20;55.70;49.52;67.38;;
82857;Laerm;72620;47.774;9.620;2024-01-25T00:42:48;56.36;49.31;66.41;;
82857;Laerm;72620;47.774;9.620;2024-01-25T00:45:22;52.95;49.32;64.71;;
82857;Laerm;72620;47.774;9.620;2024-01-25T00:47:51;50.66;49.24;53.47;;
82857;Laerm;72620;47.774;9.620;2024-01-25T00:50:19;50.63;49.17;54.18;;
82857;Laerm;72620;47.774;9.620;2024-01-25T00:52:49;50.68;49.13;52.77;;
82857;Laerm;72620;47.774;9.620;2024-01-25T00:55:16;52.73;49.21;65.18;;
82857;Laerm;72620;47.774;9.620;2024-01-25T00:57:44;51.00;49.05;58.22;;
82857;Laerm;72620;47.774;9.620;2024-01-25T01:00:12;59.06;49.43;72.71;;
82857;Laerm;72620;47.774;9.620;2024-01-25T01:02:43;54.78;49.36;66.01;;
82857;Laerm;72620;47.774;9.620;2024-01-25T01:05:12;53.43;49.32;65.50;;
82857;Laerm;72620;47.774;9.620;2024-01-25T01:07:40;50.78;49.38;53.05;;
82857;Laerm;72620;47.774;9.620;2024-01-25T01:10:11;58.52;49.10;68.43;;
82857;Laerm;72620;47.774;9.620;2024-01-25T01:12:40;60.82;49.23;73.25;;
82857;Laerm;72620;47.774;9.620;2024-01-25T01:15:07;50.64;49.36;53.91;;
82857;Laerm;72620;47.774;9.620;2024-01-25T01:17:34;53.41;49.33;65.24;;
82857;Laerm;72620;47.774;9.620;2024-01-25T01:20:01;54.96;49.36;77.63;;
82857;Laerm;72620;47.774;9.620;2024-01-25T01:22:29;52.50;49.46;61.70;;
82857;Laerm;72620;47.774;9.620;2024-01-25T01:24:56;57.13;49.76;70.27;;
82857;Laerm;72620;47.774;9.620;2024-01-25T01:27:23;55.35;49.75;67.16;;
82857;Laerm;72620;47.774;9.620;2024-01-25T01:29:50;54.66;49.73;67.82;;
82857;Laerm;72620;47.774;9.620;2024-01-25T01:32:17;50.74;49.49;55.03;;
82857;Laerm;72620;47.774;9.620;2024-01-25T01:34:44;63.16;49.72;75.28;;
82857;Laerm;72620;47.774;9.620;2024-01-25T01:37:12;57.62;49.57;71.17;;
82857;Laerm;72620;47.774;9.620;2024-01-25T01:39:39;50.83;49.48;52.81;;
82857;Laerm;72620;47.774;9.620;2024-01-25T01:42:06;54.06;49.49;64.28;;
82857;Laerm;72620;47.774;9.620;2024-01-25T01:44:33;62.88;49.51;78.21;;
82857;Laerm;72620;47.774;9.620;2024-01-25T01:47:00;53.55;49.45;64.06;;
82857;Laerm;72620;47.774;9.620;2024-01-25T01:49:27;53.58;49.77;65.18;;
82857;Laerm;72620;47.774;9.620;2024-01-25T01:51:55;50.91;49.70;53.32;;
82857;Laerm;72620;47.774;9.620;2024-01-25T01:54:24;59.06;49.63;73.12;;
82857;Laerm;72620;47.774;9.620;2024-01-25T01:56:52;50.81;49.37;53.00;;
82857;Laerm;72620;47.774;9.620;2024-01-25T01:59:20;56.03;49.22;67.51;;
82857;Laerm;72620;47.774;9.620;2024-01-25T02:01:47;55.79;49.52;69.33;;
82857;Laerm;72620;47.774;9.620;2024-01-25T02:04:15;54.90;49.68;68.04;;
82857;Laerm;72620;47.774;9.620;2024-01-25T02:06:43;51.03;49.69;54.13;;
82857;Laerm;72620;47.774;9.620;2024-01-25T02:09:11;51.38;50.19;54.84;;
82857;Laerm;72620;47.774;9.620;2024-01-25T02:11:38;58.72;50.10;71.94;;
82857;Laerm;72620;47.774;9.620;2024-01-25T02:14:05;57.54;50.14;71.52;;
82857;Laerm;72620;47.774;9.620;2024-01-25T02:16:37;59.55;49.77;72.73;;
82857;Laerm;72620;47.774;9.620;2024-01-25T02:19:05;50.97;49.34;53.87;;
82857;Laerm;72620;47.774;9.620;2024-01-25T02:21:32;53.60;49.52;64.09;;
82857;Laerm;72620;47.774;9.620;2024-01-25T02:23:59;59.36;49.51;71.39;;
82857;Laerm;72620;47.774;9.620;2024-01-25T02:26:26;54.72;49.51;67.16;;
82857;Laerm;72620;47.774;9.620;2024-01-25T02:28:53;58.54;49.69;67.67;;
82857;Laerm;72620;47.774;9.620;2024-01-25T02:31:21;59.80;49.72;70.98;;
82857;Laerm;72620;47.774;9.620;2024-01-25T02:33:48;56.49;49.44;68.81;;
82857;Laerm;72620;47.774;9.620;2024-01-25T02:36:16;61.49;49.73;74.31;;
82857;Laerm;72620;47.774;9.620;2024-01-25T02:38:43;50.81;49.50;55.20;;
82857;Laerm;72620;47.774;9.620;2024-01-25T02:41:10;60.39;49.55;73.40;;
82857;Laerm;72620;47.774;9.620;2024-01-25T02:43:37;54.42;49.35;67.08;;
82857;Laerm;72620;47.774;9.620;2024-01-25T02:46:04;50.72;49.30;53.46;;
82857;Laerm;72620;47.774;9.620;2024-01-25T02:48:31;61.60;49.71;75.94;;
82857;Laerm;72620;47.774;9.620;2024-01-25T02:50:58;56.47;49.45;68.23;;
82857;Laerm;72620;47.774;9.620;2024-01-25T02:53:25;56.33;49.40;70.43;;
82857;Laerm;72620;47.774;9.620;2024-01-25T02:55:52;60.72;49.45;74.36;;
82857;Laerm;72620;47.774;9.620;2024-01-25T02:58:20;50.91;49.45;55.43;;
82857;Laerm;72620;47.774;9.620;2024-01-25T03:00:47;50.64;49.14;53.34;;
82857;Laerm;72620;47.774;9.620;2024-01-25T03:03:14;56.31;49.52;69.20;;
82857;Laerm;72620;47.774;9.620;2024-01-25T03:05:41;62.13;49.37;75.01;;
82857;Laerm;72620;47.774;9.620;2024-01-25T03:08:09;57.56;49.34;67.90;;
82857;Laerm;72620;47.774;9.620;2024-01-25T03:10:36;55.68;49.31;68.74;;
82857;Laerm;72620;47.774;9.620;2024-01-25T03:13:03;50.60;49.12;61.62;;
82857;Laerm;72620;47.774;9.620;2024-01-25T03:15:30;57.63;49.13;69.30;;
82857;Laerm;72620;47.774;9.620;2024-01-25T03:17:57;59.92;49.19;72.72;;
82857;Laerm;72620;47.774;9.620;2024-01-25T03:20:24;59.88;49.48;72.34;;
82857;Laerm;72620;47.774;9.620;2024-01-25T03:22:51;58.86;49.38;71.30;;
82857;Laerm;72620;47.774;9.620;2024-01-25T03:25:18;61.51;49.30;74.04;;
82857;Laerm;72620;47.774;9.620;2024-01-25T03:27:46;56.64;49.18;68.73;;
82857;Laerm;72620;47.774;9.620;2024-01-25T03:30:13;59.37;49.22;69.73;;
82857;Laerm;72620;47.774;9.620;2024-01-25T03:32:40;55.29;49.16;66.16;;
82857;Laerm;72620;47.774;9.620;2024-01-25T03:35:08;58.49;49.20;71.55;;
82857;Laerm;72620;47.774;9.620;2024-01-25T03:37:35;57.97;49.37;68.76;;
82857;Laerm;72620;47.774;9.620;2024-01-25T03:40:02;55.91;49.45;66.54;;
82857;Laerm;72620;47.774;9.620;2024-01-25T03:42:30;58.02;49.47;68.94;;
82857;Laerm;72620;47.774;9.620;2024-01-25T03:44:58;62.84;49.87;74.90;;
82857;Laerm;72620;47.774;9.620;2024-01-25T03:47:25;57.80;49.13;69.61;;
82857;Laerm;72620;47.774;9.620;2024-01-25T03:49:52;60.52;49.86;68.76;;
82857;Laerm;72620;47.774;9.620;2024-01-25T03:52:19;63.57;49.78;74.68;;
82857;Laerm;72620;47.774;9.620;2024-01-25T03:54:46;64.66;49.62;73.53;;
82857;Laerm;72620;47.774;9.620;2024-01-25T03:57:13;61.82;49.77;73.16;;
82857;Laerm;72620;47.774;9.620;2024-01-25T03:59:40;60.57;49.43;70.94;;
82857;Laerm;72620;47.774;9.620;2024-01-25T04:02:08;61.75;49.66;74.64;;
82857;Laerm;72620;47.774;9.620;2024-01-25T04:04:36;59.95;49.72;72.73;;
82857;Laerm;72620;47.774;9.620;2024-01-25T04:07:03;57.95;49.48;70.45;;
82857;Laerm;72620;47.774;9.620;2024-01-25T04:09:30;60.88;49.41;72.64;;
82857;Laerm;72620;47.774;9.620;2024-01-25T04:11:57;63.31;49.62;72.81;;
82857;Laerm;72620;47.774;9.620;2024-01-25T04:14:24;61.45;49.79;69.62;;
82857;Laerm;72620;47.774;9.620;2024-01-25T04:16:51;60.91;49.76;69.97;;
82857;Laerm;72620;47.774;9.620;2024-01-25T04:19:18;64.11;51.12;72.39;;
82857;Laerm;72620;47.774;9.620;2024-01-25T04:21:45;63.07;50.88;70.44;;
82857;Laerm;72620;47.774;9.620;2024-01-25T04:24:12;60.22;49.82;69.72;;
82857;Laerm;72620;47.774;9.620;2024-01-25T04:26:39;64.06;50.08;71.24;;
82857;Laerm;72620;47.774;9.620;2024-01-25T04:29:06;62.80;50.25;70.78;;
82857;Laerm;72620;47.774;9.620;2024-01-25T04:31:33;66.00;52.67;73.65;;
82857;Laerm;72620;47.774;9.620;2024-01-25T04:34:00;64.66;50.57;71.08;;
82857;Laerm;72620;47.774;9.620;2024-01-25T04:36:28;65.38;52.30;72.12;;
82857;Laerm;72620;47.774;9.620;2024-01-25T04:38:55;67.16;56.81;73.99;;
82857;Laerm;72620;47.774;9.620;2024-01-25T04:41:22;64.68;51.15;74.30;;
82857;Laerm;72620;47.774;9.620;2024-01-25T04:43:49;64.91;50.48;72.46;;
82857;Laerm;72620;47.774;9.620;2024-01-25T04:46:16;65.93;52.70;73.66;;
82857;Laerm;72620;47.774;9.620;2024-01-25T04:48:43;65.39;53.28;71.88;;
82857;Laerm;72620;47.774;9.620;2024-01-25T04:51:18;66.54;52.08;75.97;;
82857;Laerm;72620;47.774;9.620;2024-01-25T04:53:46;65.39;53.66;71.22;;
82857;Laerm;72620;47.774;9.620;2024-01-25T04:56:14;66.02;54.31;71.73;;
82857;Laerm;72620;47.774;9.620;2024-01-25T04:58:41;64.95;52.60;71.20;;
82857;Laerm;72620;47.774;9.620;2024-01-25T05:01:08;66.03;52.34;73.26;;
82857;Laerm;72620;47.774;9.620;2024-01-25T05:03:35;64.74;50.56;71.17;;
82857;Laerm;72620;47.774;9.620;2024-01-25T05:06:03;67.83;50.69;73.98;;
82857;Laerm;72620;47.774;9.620;2024-01-25T05:08:31;64.46;51.69;72.03;;
82857;Laerm;72620;47.774;9.620;2024-01-25T05:10:58;64.36;51.93;72.71;;
82857;Laerm;72620;47.774;9.620;2024-01-25T05:13:25;68.10;51.68;75.62;;
82857;Laerm;72620;47.774;9.620;2024-01-25T05:15:52;65.56;51.03;74.57;;
82857;Laerm;72620;47.774;9.620;2024-01-25T05:18:19;67.40;54.92;76.46;;
82857;Laerm;72620;47.774;9.620;2024-01-25T05:20:46;68.18;55.80;73.54;;
82857;Laerm;72620;47.774;9.620;2024-01-25T05:23:13;67.38;53.71;75.15;;
82857;Laerm;72620;47.774;9.620;2024-01-25T05:25:40;68.43;57.85;73.47;;
82857;Laerm;72620;47.774;9.620;2024-01-25T05:28:07;65.58;52.00;71.88;;
82857;Laerm;72620;47.774;9.620;2024-01-25T05:30:35;67.53;52.46;73.26;;
82857;Laerm;72620;47.774;9.620;2024-01-25T05:33:03;67.83;55.58;73.84;;
82857;Laerm;72620;47.774;9.620;2024-01-25T05:35:30;68.72;54.65;76.86;;
82857;Laerm;72620;47.774;9.620;2024-01-25T05:37:57;68.34;54.82;73.59;;
82857;Laerm;72620;47.774;9.620;2024-01-25T05:40:24;67.73;51.01;74.96;;
82857;Laerm;72620;47.774;9.620;2024-01-25T05:42:53;69.09;51.99;76.10;;
82857;Laerm;72620;47.774;9.620;2024-01-25T05:45:21;68.40;53.68;74.71;;
82857;Laerm;72620;47.774;9.620;2024-01-25T05:47:50;68.70;60.09;74.22;;
82857;Laerm;72620;47.774;9.620;2024-01-25T05:50:19;68.85;53.60;73.87;;
82857;Laerm;72620;47.774;9.620;2024-01-25T05:52:57;68.59;56.05;76.59;;
82857;Laerm;72620;47.774;9.620;2024-01-25T05:55:24;68.99;55.79;76.27;;
82857;Laerm;72620;47.774;9.620;2024-01-25T05:57:51;68.36;56.87;75.59;;
82857;Laerm;72620;47.774;9.620;2024-01-25T06:00:19;68.42;55.13;73.54;;
82857;Laerm;72620;47.774;9.620;2024-01-25T06:02:47;68.49;56.00;72.61;;
82857;Laerm;72620;47.774;9.620;2024-01-25T06:05:15;66.67;55.00;73.74;;
82857;Laerm;72620;47.774;9.620;2024-01-25T06:07:42;67.98;57.62;75.33;;
82857;Laerm;72620;47.774;9.620;2024-01-25T06:10:10;69.02;56.13;74.68;;
82857;Laerm;72620;47.774;9.620;2024-01-25T06:12:39;73.40;54.75;89.82;;
82857;Laerm;72620;47.774;9.620;2024-01-25T06:15:07;68.65;61.26;74.24;;
82857;Laerm;72620;47.774;9.620;2024-01-25T06:17:34;67.30;60.12;70.99;;
82857;Laerm;72620;47.774;9.620;2024-01-25T06:20:12;67.40;54.27;72.61;;
82857;Laerm;72620;47.774;9.620;2024-01-25T06:22:39;69.50;63.14;77.13;;
82857;Laerm;72620;47.774;9.620;2024-01-25T06:25:06;68.02;54.20;72.76;;
82857;Laerm;72620;47.774;9.620;2024-01-25T06:27:34;68.62;54.76;76.98;;
82857;Laerm;72620;47.774;9.620;2024-01-25T06:30:02;66.74;52.25;75.07;;
82857;Laerm;72620;47.774;9.620;2024-01-25T06:32:29;69.73;59.05;76.84;;
82857;Laerm;72620;47.774;9.620;2024-01-25T06:34:59;68.12;62.50;74.51;;
82857;Laerm;72620;47.774;9.620;2024-01-25T06:37:26;69.06;60.61;82.00;;
82857;Laerm;72620;47.774;9.620;2024-01-25T06:39:54;68.86;63.41;72.68;;
82857;Laerm;72620;47.774;9.620;2024-01-25T06:42:21;81.41;63.48;96.48;;
82857;Laerm;72620;47.774;9.620;2024-01-25T06:44:48;71.38;58.29;87.92;;
82857;Laerm;72620;47.774;9.620;2024-01-25T06:47:15;83.17;59.75;99.00;;
82857;Laerm;72620;47.774;9.620;2024-01-25T06:49:44;67.46;55.03;73.57;;
82857;Laerm;72620;47.774;9.620;2024-01-25T06:52:15;68.29;56.21;73.77;;
82857;Laerm;72620;47.774;9.620;2024-01-25T06:54:42;67.92;55.10;76.06;;
82857;Laerm;72620;47.774;9.620;2024-01-25T06:57:10;66.93;52.21;71.59;;
82857;Laerm;72620;47.774;9.620;2024-01-25T06:59:37;67.95;52.12;74.93;;
82857;Laerm;72620;47.774;9.620;2024-01-25T07:02:05;65.91;53.69;72.82;;
82857;Laerm;72620;47.774;9.620;2024-01-25T07:04:32;66.42;56.16;72.13;;
82857;Laerm;72620;47.774;9.620;2024-01-25T07:07:00;67.69;56.89;72.35;;
82857;Laerm;72620;47.774;9.620;2024-01-25T07:09:27;67.90;57.56;73.61;;
82857;Laerm;72620;47.774;9.620;2024-01-25T07:11:54;68.58;55.75;75.61;;
82857;Laerm;72620;47.774;9.620;2024-01-25T07:14:21;68.53;55.35;83.80;;
82857;Laerm;72620;47.774;9.620;2024-01-25T07:16:48;67.08;55.11;72.20;;
82857;Laerm;72620;47.774;9.620;2024-01-25T07:19:15;68.62;56.35;75.65;;
82857;Laerm;72620;47.774;9.620;2024-01-25T07:21:43;67.74;52.48;75.20;;
82857;Laerm;72620;47.774;9.620;2024-01-25T07:24:12;67.74;55.06;74.40;;
82857;Laerm;72620;47.774;9.620;2024-01-25T07:26:39;67.83;54.81;73.41;;
82857;Laerm;72620;47.774;9.620;2024-01-25T07:29:06;67.01;53.77;73.81;;
82857;Laerm;72620;47.774;9.620;2024-01-25T07:31:33;67.83;54.79;73.60;;
82857;Laerm;72620;47.774;9.620;2024-01-25T07:34:00;68.53;55.78;75.88;;
82857;Laerm;72620;47.774;9.620;2024-01-25T07:36:27;67.03;53.71;75.38;;
82857;Laerm;72620;47.774;9.620;2024-01-25T07:38:54;67.43;56.60;73.71;;
82857;Laerm;72620;47.774;9.620;2024-01-25T07:41:22;69.97;57.27;75.85;;
82857;Laerm;72620;47.774;9.620;2024-01-25T07:43:49;68.69;59.35;74.54;;
82857;Laerm;72620;47.774;9.620;2024-01-25T07:46:16;68.15;53.82;75.20;;
82857;Laerm;72620;47.774;9.620;2024-01-25T07:48:43;69.80;62.44;73.62;;
82857;Laerm;72620;47.774;9.620;2024-01-25T07:51:12;67.47;53.32;73.45;;
82857;Laerm;72620;47.774;9.620;2024-01-25T07:53:42;68.31;55.38;74.53;;
82857;Laerm;72620;47.774;9.620;2024-01-25T07:56:10;68.73;55.16;73.50;;
82857;Laerm;72620;47.774;9.620;2024-01-25T07:58:37;70.58;57.73;76.03;;
82857;Laerm;72620;47.774;9.620;2024-01-25T08:01:05;68.37;54.72;76.94;;
82857;Laerm;72620;47.774;9.620;2024-01-25T08:03:36;67.49;55.90;74.75;;
82857;Laerm;72620;47.774;9.620;2024-01-25T08:06:04;68.10;56.45;74.38;;
82857;Laerm;72620;47.774;9.620;2024-01-25T08:08:31;69.66;57.50;74.84;;
82857;Laerm;72620;47.774;9.620;2024-01-25T08:10:58;68.84;57.49;74.37;;
82857;Laerm;72620;47.774;9.620;2024-01-25T08:13:26;67.87;58.44;74.20;;
82857;Laerm;72620;47.774;9.620;2024-01-25T08:15:59;69.63;60.50;76.78;;
82857;Laerm;72620;47.774;9.620;2024-01-25T08:18:27;68.58;57.66;73.99;;
82857;Laerm;72620;47.774;9.620;2024-01-25T08:20:57;74.67;55.67;90.00;;
82857;Laerm;72620;47.774;9.620;2024-01-25T08:23:25;69.01;54.57;75.80;;
82857;Laerm;72620;47.774;9.620;2024-01-25T08:25:52;67.67;53.79;74.61;;
82857;Laerm;72620;47.774;9.620;2024-01-25T08:28:19;68.48;55.94;74.43;;
82857;Laerm;72620;47.774;9.620;2024-01-25T08:30:46;69.61;55.53;77.01;;
82857;Laerm;72620;47.774;9.620;2024-01-25T08:33:14;67.35;54.65;73.35;;
82857;Laerm;72620;47.774;9.620;2024-01-25T08:35:42;69.04;53.66;75.99;;
82857;Laerm;72620;47.774;9.620;2024-01-25T08:38:09;69.97;60.28;75.74;;
82857;Laerm;72620;47.774;9.620;2024-01-25T08:40:36;68.74;58.33;74.15;;
82857;Laerm;72620;47.774;9.620;2024-01-25T08:43:03;70.42;58.75;76.52;;
82857;Laerm;72620;47.774;9.620;2024-01-25T08:45:31;69.23;56.44;75.26;;
82857;Laerm;72620;47.774;9.620;2024-01-25T08:47:59;68.73;55.12;76.05;;
82857;Laerm;72620;47.774;9.620;2024-01-25T08:50:27;68.92;54.80;74.54;;
82857;Laerm;72620;47.774;9.620;2024-01-25T08:52:54;68.48;55.45;74.26;;
82857;Laerm;72620;47.774;9.620;2024-01-25T08:55:21;69.73;55.90;77.29;;
82857;Laerm;72620;47.774;9.620;2024-01-25T08:57:49;69.86;58.88;78.07;;
82857;Laerm;72620;47.774;9.620;2024-01-25T09:00:17;67.93;52.57;76.33;;
82857;Laerm;72620;47.774;9.620;2024-01-25T09:02:45;68.47;57.02;74.09;;
82857;Laerm;72620;47.774;9.620;2024-01-25T09:05:12;67.58;51.63;73.14;;
82857;Laerm;72620;47.774;9.620;2024-01-25T09:07:41;68.67;55.66;75.22;;
82857;Laerm;72620;47.774;9.620;2024-01-25T09:10:09;69.06;60.16;75.70;;
82857;Laerm;72620;47.774;9.620;2024-01-25T09:12:38;67.14;53.19;75.02;;
82857;Laerm;72620;47.774;9.620;2024-01-25T09:15:06;67.69;52.67;75.61;;
82857;Laerm;72620;47.774;9.620;2024-01-25T09:17:36;68.40;54.98;76.27;;
82857;Laerm;72620;47.774;9.620;2024-01-25T09:20:04;69.31;61.62;75.20;;
82857;Laerm;72620;47.774;9.620;2024-01-25T09:22:31;68.12;55.93;75.12;;
82857;Laerm;72620;47.774;9.620;2024-01-25T09:24:58;67.59;54.93;74.12;;
82857;Laerm;72620;47.774;9.620;2024-01-25T09:27:26;67.96;56.51;74.62;;
82857;Laerm;72620;47.774;9.620;2024-01-25T09:29:53;67.57;57.07;74.54;;
82857;Laerm;72620;47.774;9.620;2024-01-25T09:32:20;67.66;54.92;74.87;;
82857;Laerm;72620;47.774;9.620;2024-01-25T09:34:47;67.60;55.29;73.51;;
82857;Laerm;72620;47.774;9.620;2024-01-25T09:37:15;71.03;57.16;78.72;;
82857;Laerm;72620;47.774;9.620;2024-01-25T09:39:44;68.68;56.32;75.78;;
82857;Laerm;72620;47.774;9.620;2024-01-25T09:42:12;69.37;56.66;76.60;;
82857;Laerm;72620;47.774;9.620;2024-01-25T09:44:41;69.13;59.68;74.92;;
82857;Laerm;72620;47.774;9.620;2024-01-25T09:47:11;68.92;57.67;75.54;;
82857;Laerm;72620;47.774;9.620;2024-01-25T09:49:38;67.68;57.67;74.80;;
82857;Laerm;72620;47.774;9.620;2024-01-25T09:52:12;68.10;56.16;75.41;;
82857;Laerm;72620;47.774;9.620;2024-01-25T09:54:40;68.85;57.37;74.44;;
82857;Laerm;72620;47.774;9.620;2024-01-25T09:57:28;69.62;57.56;77.07;;
82857;Laerm;72620;47.774;9.620;2024-01-25T09:59:56;68.72;55.07;75.32;;
82857;Laerm;72620;47.774;9.620;2024-01-25T10:02:24;69.81;63.02;75.56;;
82857;Laerm;72620;47.774;9.620;2024-01-25T10:04:51;67.51;52.71;77.49;;
82857;Laerm;72620;47.774;9.620;2024-01-25T10:07:42;69.72;55.52;76.83;;
82857;Laerm;72620;47.774;9.620;2024-01-25T10:10:13;68.17;53.59;75.87;;
82857;Laerm;72620;47.774;9.620;2024-01-25T10:12:42;67.82;55.42;74.59;;
82857;Laerm;72620;47.774;9.620;2024-01-25T10:15:10;68.58;58.76;73.77;;
82857;Laerm;72620;47.774;9.620;2024-01-25T10:17:39;67.66;55.01;74.92;;
82857;Laerm;72620;47.774;9.620;2024-01-25T10:20:26;66.27;52.63;75.32;;
82857;Laerm;72620;47.774;9.620;2024-01-25T10:22:58;69.19;57.50;78.33;;
82857;Laerm;72620;47.774;9.620;2024-01-25T10:25:27;65.94;52.38;75.56;;
82857;Laerm;72620;47.774;9.620;2024-01-25T10:27:54;67.10;54.07;74.75;;
82857;Laerm;72620;47.774;9.620;2024-01-25T10:30:36;67.67;58.12;76.15;;
82857;Laerm;72620;47.774;9.620;2024-01-25T10:33:04;67.32;56.11;72.29;;
82857;Laerm;72620;47.774;9.620;2024-01-25T10:35:32;68.37;55.79;74.25;;
82857;Laerm;72620;47.774;9.620;2024-01-25T10:38:01;69.51;55.98;76.63;;
82857;Laerm;72620;47.774;9.620;2024-01-25T10:40:29;69.08;57.28;74.65;;
82857;Laerm;72620;47.774;9.620;2024-01-25T10:42:56;69.64;58.62;76.31;;
82857;Laerm;72620;47.774;9.620;2024-01-25T10:45:24;70.45;57.08;76.97;;
82857;Laerm;72620;47.774;9.620;2024-01-25T10:47:51;67.83;55.73;72.78;;
82857;Laerm;72620;47.774;9.620;2024-01-25T10:50:19;70.42;57.18;83.56;;
82857;Laerm;72620;47.774;9.620;2024-01-25T10:52:48;69.80;58.00;77.16;;
82857;Laerm;72620;47.774;9.620;2024-01-25T10:55:17;69.56;60.37;75.00;;
82857;Laerm;72620;47.774;9.620;2024-01-25T10:57:45;67.63;55.05;73.87;;
82857;Laerm;72620;47.774;9.620;2024-01-25T11:00:15;69.46;57.67;77.03;;
82857;Laerm;72620;47.774;9.620;2024-01-25T11:02:45;68.19;55.53;74.97;;
82857;Laerm;72620;47.774;9.620;2024-01-25T11:05:17;69.30;54.24;76.73;;
82857;Laerm;72620;47.774;9.620;2024-01-25T11:07:49;68.94;55.34;74.50;;
82857;Laerm;72620;47.774;9.620;2024-01-25T11:10:19;67.11;55.54;72.43;;
82857;Laerm;72620;47.774;9.620;2024-01-25T11:13:00;69.44;60.21;74.64;;
82857;Laerm;72620;47.774;9.620;2024-01-25T11:15:36;69.02;56.88;75.72;;
82857;Laerm;72620;47.774;9.620;2024-01-25T11:18:07;70.48;59.84;77.86;;
82857;Laerm;72620;47.774;9.620;2024-01-25T11:20:36;68.55;54.94;73.66;;
82857;Laerm;72620;47.774;9.620;2024-01-25T11:23:05;68.58;53.34;75.62;;
82857;Laerm;72620;47.774;9.620;2024-01-25T11:25:36;69.33;57.19;75.16;;
82857;Laerm;72620;47.774;9.620;2024-01-25T11:28:05;70.65;60.34;79.85;;
82857;Laerm;72620;47.774;9.620;2024-01-25T11:30:34;69.47;56.97;76.83;;
82857;Laerm;72620;47.774;9.620;2024-01-25T11:33:09;69.76;56.93;75.76;;
82857;Laerm;72620;47.774;9.620;2024-01-25T11:35:37;70.13;59.78;76.08;;
82857;Laerm;72620;47.774;9.620;2024-01-25T11:38:05;69.37;60.63;74.27;;
82857;Laerm;72620;47.774;9.620;2024-01-25T11:40:32;68.97;54.97;76.37;;
82857;Laerm;72620;47.774;9.620;2024-01-25T11:43:05;69.17;60.41;76.06;;
82857;Laerm;72620;47.774;9.620;2024-01-25T11:45:39;69.37;60.23;74.92;;
82857;Laerm;72620;47.774;9.620;2024-01-25T11:48:10;69.23;53.99;78.11;;
82857;Laerm;72620;47.774;9.620;2024-01-25T11:50:38;67.82;53.95;74.82;;
82857;Laerm;72620;47.774;9.620;2024-01-25T11:53:05;69.46;56.75;76.23;;
82857;Laerm;72620;47.774;9.620;2024-01-25T11:55:33;67.85;52.73;77.91;;
82857;Laerm;72620;47.774;9.620;2024-01-25T11:58:01;68.64;55.84;74.94;;
82857;Laerm;72620;47.774;9.620;2024-01-25T12:00:28;69.32;56.18;77.05;;
82857;Laerm;72620;47.774;9.620;2024-01-25T12:02:56;70.06;56.22;76.66;;
82857;Laerm;72620;47.774;9.620;2024-01-25T12:05:23;69.50;62.17;75.00;;
82857;Laerm;72620;47.774;9.620;2024-01-25T12:07:51;68.70;55.06;76.00;;
82857;Laerm;72620;47.774;9.620;2024-01-25T12:10:18;68.64;58.88;73.95;;
82857;Laerm;72620;47.774;9.620;2024-01-25T12:12:48;68.06;54.73;76.24;;
82857;Laerm;72620;47.774;9.620;2024-01-25T12:15:15;68.82;59.75;74.77;;
82857;Laerm;72620;47.774;9.620;2024-01-25T12:17:42;68.36;53.93;75.49;;
82857;Laerm;72620;47.774;9.620;2024-01-25T12:20:11;69.77;55.05;75.05;;
82857;Laerm;72620;47.774;9.620;2024-01-25T12:22:39;69.88;56.01;76.45;;
82857;Laerm;72620;47.774;9.620;2024-01-25T12:25:09;68.92;54.86;75.14;;
82857;Laerm;72620;47.774;9.620;2024-01-25T12:27:40;66.61;54.23;71.81;;
82857;Laerm;72620;47.774;9.620;2024-01-25T12:30:08;68.59;55.52;76.43;;
82857;Laerm;72620;47.774;9.620;2024-01-25T12:32:36;68.58;54.55;74.80;;
82857;Laerm;72620;47.774;9.620;2024-01-25T12:35:04;68.51;57.22;75.15;;
82857;Laerm;72620;47.774;9.620;2024-01-25T12:37:32;67.62;59.00;72.75;;
82857;Laerm;72620;47.774;9.620;2024-01-25T12:39:59;68.41;58.12;73.63;;
82857;Laerm;72620;47.774;9.620;2024-01-25T12:42:27;69.14;59.98;74.01;;
82857;Laerm;72620;47.774;9.620;2024-01-25T12:44:54;68.31;58.82;72.71;;
82857;Laerm;72620;47.774;9.620;2024-01-25T12:47:21;67.87;58.47;75.04;;
82857;Laerm;72620;47.774;9.620;2024-01-25T12:49:49;68.37;56.25;74.86;;
82857;Laerm;72620;47.774;9.620;2024-01-25T12:52:16;68.52;57.90;75.22;;
82857;Laerm;72620;47.774;9.620;2024-01-25T12:54:44;69.91;55.35;75.13;;
82857;Laerm;72620;47.774;9.620;2024-01-25T12:57:11;69.92;59.52;75.01;;
82857;Laerm;72620;47.774;9.620;2024-01-25T12:59:38;68.37;53.92;74.95;;
82857;Laerm;72620;47.774;9.620;2024-01-25T13:02:07;68.05;54.36;74.49;;
82857;Laerm;72620;47.774;9.620;2024-01-25T13:04:35;67.18;55.80;73.10;;
82857;Laerm;72620;47.774;9.620;2024-01-25T13:07:03;68.14;56.48;74.15;;
82857;Laerm;72620;47.774;9.620;2024-01-25T13:09:30;70.02;59.04;79.46;;
82857;Laerm;72620;47.774;9.620;2024-01-25T13:12:00;70.52;57.76;77.66;;
82857;Laerm;72620;47.774;9.620;2024-01-25T13:14:28;69.18;56.89;75.97;;
82857;Laerm;72620;47.774;9.620;2024-01-25T13:16:55;69.86;57.13;78.61;;
82857;Laerm;72620;47.774;9.620;2024-01-25T13:19:22;69.41;58.73;74.52;;
82857;Laerm;72620;47.774;9.620;2024-01-25T13:21:50;69.55;55.89;78.28;;
82857;Laerm;72620;47.774;9.620;2024-01-25T13:24:19;70.38;57.99;77.04;;
82857;Laerm;72620;47.774;9.620;2024-01-25T13:26:46;69.91;59.84;76.08;;
82857;Laerm;72620;47.774;9.620;2024-01-25T13:29:13;70.16;61.84;74.49;;
82857;Laerm;72620;47.774;9.620;2024-01-25T13:31:40;69.06;61.16;75.23;;
82857;Laerm;72620;47.774;9.620;2024-01-25T13:34:08;69.32;54.49;76.17;;
82857;Laerm;72620;47.774;9.620;2024-01-25T13:36:35;68.22;57.93;79.72;;
82857;Laerm;72620;47.774;9.620;2024-01-25T13:39:02;69.60;57.64;75.86;;
82857;Laerm;72620;47.774;9.620;2024-01-25T13:41:30;69.51;56.89;74.87;;
82857;Laerm;72620;47.774;9.620;2024-01-25T13:43:57;68.75;56.47;76.62;;
82857;Laerm;72620;47.774;9.620;2024-01-25T13:46:24;68.17;58.02;74.50;;
82857;Laerm;72620;47.774;9.620;2024-01-25T13:48:52;68.90;57.68;76.74;;